createdAt,value
2022-10-07T00:00:45.679Z,5.78
2022-10-07T00:04:59.452Z,6.03
2022-10-07T00:09:14.880Z,6.30
2022-10-07T00:13:28.581Z,6.10
2022-10-07T00:17:43.135Z,5.80
2022-10-07T00:21:56.958Z,4.88
2022-10-07T00:26:13.705Z,5.47
2022-10-07T00:30:27.509Z,6.30
2022-10-07T00:34:41.297Z,6.40
2022-10-07T00:38:57.090Z,6.77
2022-10-07T00:43:26.860Z,6.53
2022-10-07T00:47:41.311Z,6.60
2022-10-07T00:51:55.320Z,6.70
2022-10-07T00:56:09.867Z,6.40
2022-10-07T01:00:24.915Z,6.22
2022-10-07T01:04:39.727Z,6.70
2022-10-07T01:08:55.099Z,6.60
2022-10-07T01:13:18.903Z,6.50
2022-10-07T01:17:39.932Z,7.15
2022-10-07T01:22:05.999Z,7.50
2022-10-07T01:26:52.367Z,7.43
2022-10-07T01:31:11.539Z,7.25
2022-10-07T01:35:28.266Z,6.93
2022-10-07T01:39:50.772Z,7.10
2022-10-07T01:44:07.253Z,7.93
2022-10-07T01:48:21.258Z,7.57
2022-10-07T01:52:48.066Z,7.27
2022-10-07T01:57:15.766Z,6.60
2022-10-07T02:01:36.144Z,7.68
2022-10-07T02:05:54.391Z,7.93
2022-10-07T02:10:18.945Z,8.40
2022-10-07T02:14:39.400Z,8.15
2022-10-07T02:18:55.676Z,8.23
2022-10-07T02:23:13.560Z,7.63
2022-10-07T02:27:32.697Z,7.72
2022-10-07T02:31:48.629Z,7.82
2022-10-07T02:36:10.710Z,7.50
2022-10-07T02:40:30.132Z,8.07
2022-10-07T02:44:50.139Z,8.55
2022-10-07T02:49:09.491Z,8.13
2022-10-07T02:53:28.397Z,8.02
2022-10-07T02:57:47.247Z,8.73
2022-10-07T03:02:04.422Z,8.23
2022-10-07T03:06:20.771Z,8.68
2022-10-07T03:10:36.729Z,8.20
2022-10-07T03:14:50.907Z,7.65
2022-10-07T03:19:06.842Z,5.10
2022-10-07T03:23:30.112Z,6.75
2022-10-07T03:27:46.512Z,6.15
2022-10-07T03:32:01.370Z,6.77
2022-10-07T03:36:15.636Z,8.20
2022-10-07T03:40:32.262Z,7.03
2022-10-07T03:44:50.130Z,7.93
2022-10-07T03:49:05.234Z,7.28
2022-10-07T03:53:19.620Z,7.85
2022-10-07T03:57:56.882Z,9.25
2022-10-07T04:02:15.457Z,8.43
2022-10-07T04:06:30.229Z,7.85
2022-10-07T04:10:45.192Z,7.93
2022-10-07T04:14:59.083Z,8.47
2022-10-07T04:19:14.531Z,8.48
2022-10-07T04:23:30.124Z,7.93
2022-10-07T04:27:51.812Z,8.73
2022-10-07T04:32:08.022Z,9.02
2022-10-07T04:36:23.293Z,7.63
2022-10-07T04:40:45.593Z,8.40
2022-10-07T04:44:59.838Z,8.13
2022-10-07T04:49:14.473Z,8.55
2022-10-07T04:53:29.663Z,8.05
2022-10-07T04:57:43.766Z,8.53
2022-10-07T05:01:58.222Z,8.07
2022-10-07T05:06:12.526Z,8.23
2022-10-07T05:10:29.767Z,8.00
2022-10-07T05:14:44.128Z,8.80
2022-10-07T05:19:00.037Z,7.82
2022-10-07T05:23:15.420Z,7.45
2022-10-07T05:27:30.815Z,6.60
2022-10-07T05:31:44.623Z,7.20
2022-10-07T05:36:01.096Z,6.97
2022-10-07T05:40:15.001Z,5.77
2022-10-07T05:44:32.159Z,6.97
2022-10-07T05:48:49.420Z,7.40
2022-10-07T05:53:03.900Z,7.37
2022-10-07T05:57:17.895Z,7.57
2022-10-07T06:01:33.691Z,6.45
2022-10-07T06:05:54.694Z,5.53
2022-10-07T06:10:28.564Z,6.73
2022-10-07T06:14:43.286Z,4.13
2022-10-07T06:18:59.904Z,5.50
2022-10-07T06:23:16.104Z,6.90
2022-10-07T06:27:29.923Z,5.60
2022-10-07T06:31:44.192Z,7.07
2022-10-07T06:36:04.605Z,6.43
2022-10-07T06:40:18.801Z,6.13
2022-10-07T06:44:32.689Z,5.80
2022-10-07T06:48:47.983Z,5.35
2022-10-07T06:53:05.024Z,5.73
2022-10-07T06:57:44.360Z,5.07
2022-10-07T07:01:56.031Z,5.18
2022-10-07T07:06:11.061Z,5.40
2022-10-07T07:10:26.608Z,4.80
2022-10-07T07:14:40.511Z,4.60
2022-10-07T07:19:02.204Z,4.43
2022-10-07T07:23:16.866Z,4.80
2022-10-07T07:27:32.591Z,4.85
2022-10-07T07:31:46.719Z,4.80
2022-10-07T07:36:00.818Z,4.03
2022-10-07T07:40:14.739Z,4.50
2022-10-07T07:44:34.082Z,4.70
2022-10-07T07:48:51.898Z,4.70
2022-10-07T07:53:06.064Z,4.50
2022-10-07T07:57:20.672Z,4.10
2022-10-07T08:01:36.163Z,4.73
2022-10-07T08:05:50.539Z,4.32
2022-10-07T08:10:04.489Z,4.30
2022-10-07T08:14:18.732Z,4.35
2022-10-07T08:18:37.413Z,4.47
2022-10-07T08:22:54.502Z,4.07
2022-10-07T08:27:10.987Z,4.00
2022-10-07T08:31:27.474Z,3.90
2022-10-07T08:35:43.384Z,3.70
2022-10-07T08:39:57.178Z,3.70
2022-10-07T08:44:20.124Z,3.77
2022-10-07T08:48:39.057Z,3.70
2022-10-07T08:52:59.379Z,3.67
2022-10-07T08:57:20.466Z,3.78
2022-10-07T09:01:45.467Z,3.67
2022-10-07T09:06:00.892Z,3.58
2022-10-07T09:10:28.888Z,3.30
2022-10-07T09:14:47.453Z,3.40
2022-10-07T09:19:03.898Z,3.72
2022-10-07T09:23:19.262Z,3.05
2022-10-07T09:27:34.659Z,3.43
2022-10-07T09:31:49.427Z,3.03
2022-10-07T09:36:08.351Z,3.28
2022-10-07T09:40:28.788Z,3.00
2022-10-07T09:44:51.609Z,2.50
2022-10-07T09:49:07.287Z,2.38
2022-10-07T09:53:22.886Z,2.28
2022-10-07T09:57:37.642Z,2.70
2022-10-07T10:01:55.721Z,2.75
2022-10-07T10:06:10.619Z,2.75
2022-10-07T10:10:27.103Z,2.33
2022-10-07T10:14:51.300Z,2.67
2022-10-07T10:19:22.387Z,2.40
2022-10-07T10:23:39.383Z,2.17
2022-10-07T10:28:00.139Z,2.40
2022-10-07T10:32:41.589Z,2.40
2022-10-07T10:37:01.013Z,2.00
2022-10-07T10:41:28.447Z,1.70
2022-10-07T10:45:58.703Z,1.80
2022-10-07T10:50:21.200Z,1.85
2022-10-07T10:54:48.664Z,1.80
2022-10-07T10:59:19.879Z,2.00
2022-10-07T11:03:54.829Z,1.92
2022-10-07T11:08:13.694Z,2.17
2022-10-07T11:12:33.650Z,2.30
2022-10-07T11:16:52.412Z,2.22
2022-10-07T11:21:13.009Z,2.40
2022-10-07T11:25:34.101Z,2.40
2022-10-07T11:29:56.067Z,2.00
2022-10-07T11:34:17.676Z,2.45
2022-10-07T11:38:35.188Z,2.80
2022-10-07T11:42:52.073Z,2.67
2022-10-07T11:47:15.643Z,2.70
2022-10-07T11:51:34.301Z,2.85
2022-10-07T11:55:55.185Z,2.60
2022-10-07T12:00:24.531Z,2.72
2022-10-07T12:04:40.227Z,2.50
2022-10-07T12:08:54.526Z,2.40
2022-10-07T12:13:41.623Z,2.10
2022-10-07T12:17:56.214Z,1.92
2022-10-07T12:22:20.461Z,1.90
2022-10-07T12:26:46.902Z,2.10
2022-10-07T12:31:02.255Z,2.00
2022-10-07T12:35:38.697Z,1.80
2022-10-07T12:39:54.045Z,1.80
2022-10-07T12:44:17.709Z,1.90
2022-10-07T12:48:36.875Z,2.10
2022-10-07T12:52:54.689Z,2.30
2022-10-07T12:57:15.203Z,2.60
2022-10-07T13:01:46.800Z,2.20
2022-10-07T13:06:25.760Z,2.17
2022-10-07T13:11:06.505Z,2.33
2022-10-07T13:15:32.643Z,2.20
2022-10-07T13:19:57.886Z,2.05
2022-10-07T13:24:18.599Z,2.00
2022-10-07T13:28:44.588Z,2.13
2022-10-07T13:33:21.065Z,2.15
2022-10-07T13:37:36.322Z,2.40
2022-10-07T13:41:55.331Z,2.10
2022-10-07T13:46:10.342Z,2.28
2022-10-07T13:50:29.176Z,2.20
2022-10-07T13:54:50.783Z,2.50
2022-10-07T13:59:06.823Z,2.20
2022-10-07T14:03:20.549Z,2.30
2022-10-07T14:07:42.531Z,2.20
2022-10-07T14:12:01.891Z,2.30
2022-10-07T14:16:22.246Z,2.20
2022-10-07T14:20:38.935Z,2.40
2022-10-07T14:24:56.171Z,2.40
2022-10-07T14:29:23.367Z,2.13
2022-10-07T14:34:01.146Z,2.40
2022-10-07T14:43:03.177Z,2.30
2022-10-07T14:47:21.097Z,2.63
2022-10-07T14:51:36.948Z,1.80
2022-10-07T14:55:51.028Z,2.22
2022-10-07T15:00:14.440Z,2.00
2022-10-07T15:04:28.179Z,2.50
2022-10-07T15:08:42.022Z,2.47
2022-10-07T15:12:56.837Z,2.65
2022-10-07T15:17:12.468Z,2.47
2022-10-07T15:21:26.377Z,2.40
2022-10-07T15:25:42.505Z,2.10
2022-10-07T15:29:56.309Z,2.30
2022-10-07T15:34:11.690Z,2.30
2022-10-07T15:38:26.454Z,2.15
2022-10-07T15:42:40.573Z,2.40
2022-10-07T15:46:55.303Z,2.27
2022-10-07T15:51:10.531Z,2.40
2022-10-07T15:55:24.257Z,2.80
2022-10-07T15:59:38.076Z,2.80
2022-10-07T16:03:51.798Z,3.00
2022-10-07T16:08:06.943Z,3.08
2022-10-07T16:12:20.585Z,2.38
2022-10-07T16:16:34.764Z,3.23
2022-10-07T16:20:48.644Z,3.05
2022-10-07T16:25:03.790Z,2.90
2022-10-07T16:29:36.652Z,3.10
2022-10-07T16:33:53.009Z,3.47
2022-10-07T16:38:07.464Z,3.20
2022-10-07T16:42:22.576Z,3.20
2022-10-07T16:46:37.153Z,4.00
2022-10-07T16:50:51.024Z,3.65
2022-10-07T16:55:05.422Z,3.67
2022-10-07T16:59:23.904Z,4.20
2022-10-07T17:03:39.650Z,4.00
2022-10-07T17:07:54.870Z,3.97
2022-10-07T17:12:09.119Z,4.30
2022-10-07T17:16:24.717Z,4.00
2022-10-07T17:20:42.799Z,3.63
2022-10-07T17:24:56.740Z,3.73
2022-10-07T17:29:12.938Z,4.82
2022-10-07T17:33:27.930Z,5.10
2022-10-07T17:37:41.664Z,4.32
2022-10-07T17:41:55.460Z,4.73
2022-10-07T17:46:12.864Z,4.55
2022-10-07T17:50:28.230Z,4.50
2022-10-07T17:54:42.025Z,4.73
2022-10-07T17:58:56.028Z,4.70
2022-10-07T18:03:11.691Z,4.30
2022-10-07T18:07:26.843Z,5.40
2022-10-07T18:11:58.268Z,5.10
2022-10-07T18:16:14.127Z,6.35
2022-10-07T18:20:28.740Z,6.40
2022-10-07T18:24:43.968Z,8.10
2022-10-07T18:28:58.150Z,8.10
2022-10-07T18:33:11.788Z,7.40
2022-10-07T18:37:25.505Z,7.30
2022-10-07T18:41:41.340Z,6.60
2022-10-07T18:46:02.913Z,7.10
2022-10-07T18:50:17.622Z,7.67
2022-10-07T18:54:32.853Z,8.05
2022-10-07T18:58:49.696Z,7.60
2022-10-07T19:03:03.329Z,7.80
2022-10-07T19:07:17.009Z,8.67
2022-10-07T19:11:34.349Z,8.85
2022-10-07T19:15:49.549Z,7.97
2022-10-07T19:20:04.764Z,7.33
2022-10-07T19:24:18.990Z,7.53
2022-10-07T19:28:32.926Z,7.80
2022-10-07T19:32:48.537Z,7.90
2022-10-07T19:37:02.521Z,7.43
2022-10-07T19:41:17.441Z,7.63
2022-10-07T19:45:35.653Z,7.45
2022-10-07T19:49:52.761Z,7.90
2022-10-07T19:54:10.122Z,8.50
2022-10-07T19:58:24.552Z,7.15
2022-10-07T20:02:38.521Z,8.07
2022-10-07T20:06:53.879Z,7.90
2022-10-07T20:11:09.568Z,8.40
2022-10-07T20:15:23.225Z,8.80
2022-10-07T20:19:37.926Z,8.77
2022-10-07T20:23:54.759Z,7.85
2022-10-07T20:28:08.595Z,7.60
2022-10-07T20:32:22.485Z,7.60
2022-10-07T20:36:38.284Z,7.07
2022-10-07T20:41:12.677Z,7.65
2022-10-07T20:45:26.895Z,7.20
2022-10-07T20:49:41.816Z,7.00
2022-10-07T20:53:55.574Z,7.70
2022-10-07T20:58:10.572Z,7.27
2022-10-07T21:02:25.616Z,7.25
2022-10-07T21:06:39.843Z,7.43
2022-10-07T21:10:53.889Z,7.20
2022-10-07T21:15:09.686Z,7.63
2022-10-07T21:19:23.533Z,8.10
2022-10-07T21:23:37.841Z,8.32
2022-10-07T21:27:51.711Z,7.80
2022-10-07T21:32:06.844Z,7.72
2022-10-07T21:36:21.909Z,7.82
2022-10-07T21:40:35.842Z,7.50
2022-10-07T21:44:49.655Z,7.50
2022-10-07T21:49:06.198Z,8.23
2022-10-07T21:53:19.996Z,8.25
2022-10-07T21:57:33.613Z,7.97
2022-10-07T22:01:47.398Z,8.48
2022-10-07T22:06:07.723Z,7.70
2022-10-07T22:10:21.605Z,7.73
2022-10-07T22:14:35.560Z,6.80
2022-10-07T22:18:52.075Z,7.20
2022-10-07T22:23:07.465Z,7.23
2022-10-07T22:27:22.139Z,7.15
2022-10-07T22:31:36.008Z,7.60
2022-10-07T22:35:49.844Z,7.32
2022-10-07T22:40:05.532Z,7.03
2022-10-07T22:44:19.214Z,6.70
2022-10-07T22:48:34.146Z,7.05
2022-10-07T22:52:49.186Z,6.57
2022-10-07T22:57:07.225Z,6.72
2022-10-07T23:01:21.772Z,7.43
2022-10-07T23:05:37.431Z,6.10
2022-10-07T23:09:51.208Z,6.60
2022-10-07T23:14:06.427Z,6.88
2022-10-07T23:18:20.212Z,6.95
2022-10-07T23:22:34.710Z,6.67
2022-10-07T23:26:48.375Z,6.28
2022-10-07T23:31:06.038Z,6.85
2022-10-07T23:35:19.813Z,7.10
2022-10-07T23:39:34.536Z,7.15
2022-10-07T23:43:49.698Z,7.50
2022-10-07T23:48:04.954Z,7.77
2022-10-07T23:52:19.545Z,7.40
2022-10-07T23:56:34.014Z,7.50
